sensor_id;sensor_type;location;lat;lon;timestamp;pressure;altitude;pressure_sealevel;temperature;humidity
38038;BME280;23843;51.320;12.340;2022-12-18T05:32:36;102052.28;;;-8.35;100.00
38038;BME280;23843;51.320;12.340;2022-12-18T05:35:03;102058.16;;;-8.37;100.00
38038;BME280;23843;51.320;12.340;2022-12-18T05:37:28;102059.97;;;-8.35;100.00
38038;BME280;23843;51.320;12.340;2022-12-18T05:39:54;102067.69;;;-8.35;100.00
38038;BME280;23843;51.320;12.340;2022-12-18T05:42:19;102070.25;;;-8.35;100.00
38038;BME280;23843;51.320;12.340;2022-12-18T05:44:44;102070.19;;;-8.36;100.00
38038;BME280;23843;51.320;12.340;2022-12-18T05:47:10;102066.00;;;-8.34;100.00
38038;BME280;23843;51.320;12.340;2022-12-18T05:49:37;102068.56;;;-8.34;100.00
38038;BME280;23843;51.320;12.340;2022-12-18T05:52:02;102072.84;;;-8.35;100.00
38038;BME280;23843;51.320;12.340;2022-12-18T05:54:28;102073.44;;;-8.41;100.00
38038;BME280;23843;51.320;12.340;2022-12-18T05:56:53;102087.03;;;-8.43;100.00
38038;BME280;23843;51.320;12.340;2022-12-18T05:59:19;102085.19;;;-8.46;100.00
38038;BME280;23843;51.320;12.340;2022-12-18T06:01:45;102080.84;;;-8.47;100.00
38038;BME280;23843;51.320;12.340;2022-12-18T06:04:10;102095.38;;;-8.47;100.00
38038;BME280;23843;51.320;12.340;2022-12-18T06:06:37;102092.81;;;-8.47;100.00
38038;BME280;23843;51.320;12.340;2022-12-18T06:09:03;102092.81;;;-8.47;100.00
38038;BME280;23843;51.320;12.340;2022-12-18T06:11:28;102090.97;;;-8.50;100.00
38038;BME280;23843;51.320;12.340;2022-12-18T06:13:55;102093.44;;;-8.51;100.00
38038;BME280;23843;51.320;12.340;2022-12-18T06:16:21;102095.13;;;-8.52;100.00
38038;BME280;23843;51.320;12.340;2022-12-18T06:18:46;102095.13;;;-8.52;100.00
38038;BME280;23843;51.320;12.340;2022-12-18T06:21:11;102097.63;;;-8.53;100.00
38038;BME280;23843;51.320;12.340;2022-12-18T06:23:38;102105.31;;;-8.53;100.00
38038;BME280;23843;51.320;12.340;2022-12-18T06:26:05;102105.31;;;-8.53;100.00
38038;BME280;23843;51.320;12.340;2022-12-18T06:28:30;102098.44;;;-8.54;100.00
38038;BME280;23843;51.320;12.340;2022-12-18T06:30:56;102100.78;;;-8.59;100.00
38038;BME280;23843;51.320;12.340;2022-12-18T06:33:21;102100.78;;;-8.59;100.00
38038;BME280;23843;51.320;12.340;2022-12-18T06:35:47;102103.47;;;-8.56;100.00
38038;BME280;23843;51.320;12.340;2022-12-18T06:38:12;102107.91;;;-8.53;100.00
38038;BME280;23843;51.320;12.340;2022-12-18T06:40:39;102104.44;;;-8.54;100.00
38038;BME280;23843;51.320;12.340;2022-12-18T06:43:05;102106.16;;;-8.54;100.00
38038;BME280;23843;51.320;12.340;2022-12-18T06:45:30;102100.91;;;-8.56;100.00
38038;BME280;23843;51.320;12.340;2022-12-18T06:47:56;102106.06;;;-8.56;100.00
38038;BME280;23843;51.320;12.340;2022-12-18T06:50:21;102107.91;;;-8.53;100.00
38038;BME280;23843;51.320;12.340;2022-12-18T06:52:47;102111.38;;;-8.53;100.00
38038;BME280;23843;51.320;12.340;2022-12-18T06:55:12;102110.47;;;-8.53;100.00
38038;BME280;23843;51.320;12.340;2022-12-18T06:57:39;102108.00;;;-8.52;100.00
38038;BME280;23843;51.320;12.340;2022-12-18T07:00:06;102108.88;;;-8.51;100.00
38038;BME280;23843;51.320;12.340;2022-12-18T07:02:32;102108.72;;;-8.54;100.00
38038;BME280;23843;51.320;12.340;2022-12-18T07:04:57;102105.19;;;-8.56;100.00
38038;BME280;23843;51.320;12.340;2022-12-18T07:07:23;102099.16;;;-8.57;100.00
38038;BME280;23843;51.320;12.340;2022-12-18T07:09:49;102101.81;;;-8.55;100.00
38038;BME280;23843;51.320;12.340;2022-12-18T07:12:15;102108.72;;;-8.54;100.00
38038;BME280;23843;51.320;12.340;2022-12-18T07:14:42;102118.19;;;-8.53;100.00
38038;BME280;23843;51.320;12.340;2022-12-18T07:17:07;102122.53;;;-8.52;100.00
38038;BME280;23843;51.320;12.340;2022-12-18T07:19:33;102110.31;;;-8.56;100.00
38038;BME280;23843;51.320;12.340;2022-12-18T07:21:59;102112.84;;;-8.58;100.00
38038;BME280;23843;51.320;12.340;2022-12-18T07:24:24;102115.47;;;-8.56;100.00
38038;BME280;23843;51.320;12.340;2022-12-18T07:26:50;102119.16;;;-8.51;100.00
38038;BME280;23843;51.320;12.340;2022-12-18T07:29:15;102121.72;;;-8.51;100.00
38038;BME280;23843;51.320;12.340;2022-12-18T07:31:42;102121.72;;;-8.51;100.00
38038;BME280;23843;51.320;12.340;2022-12-18T07:34:10;102127.81;;;-8.49;100.00
38038;BME280;23843;51.320;12.340;2022-12-18T07:36:35;102123.81;;;-8.44;100.00
38038;BME280;23843;51.320;12.340;2022-12-18T07:39:01;102130.94;;;-8.38;100.00
38038;BME280;23843;51.320;12.340;2022-12-18T07:41:26;102125.84;;;-8.37;100.00
38038;BME280;23843;51.320;12.340;2022-12-18T07:43:52;102130.34;;;-8.33;100.00
38038;BME280;23843;51.320;12.340;2022-12-18T07:46:17;102139.75;;;-8.33;100.00
38038;BME280;23843;51.320;12.340;2022-12-18T07:48:44;102141.59;;;-8.31;100.00
38038;BME280;23843;51.320;12.340;2022-12-18T07:51:13;102146.06;;;-8.27;100.00
38038;BME280;23843;51.320;12.340;2022-12-18T07:53:39;102151.41;;;-8.24;100.00
38038;BME280;23843;51.320;12.340;2022-12-18T07:56:06;102154.03;;;-8.22;100.00
38038;BME280;23843;51.320;12.340;2022-12-18T07:58:32;102153.28;;;-8.20;100.00
38038;BME280;23843;51.320;12.340;2022-12-18T08:01:02;102155.38;;;-8.12;100.00
38038;BME280;23843;51.320;12.340;2022-12-18T08:03:28;102159.25;;;-8.04;100.00
38038;BME280;23843;51.320;12.340;2022-12-18T08:05:59;102155.19;;;-7.99;100.00
38038;BME280;23843;51.320;12.340;2022-12-18T08:08:25;102158.75;;;-7.97;100.00
38038;BME280;23843;51.320;12.340;2022-12-18T08:10:50;102155.00;;;-7.86;100.00
38038;BME280;23843;51.320;12.340;2022-12-18T08:13:16;102154.50;;;-7.79;100.00
38038;BME280;23843;51.320;12.340;2022-12-18T08:15:41;102148.56;;;-7.78;100.00
38038;BME280;23843;51.320;12.340;2022-12-18T08:18:07;102150.63;;;-7.70;100.00
38038;BME280;23843;51.320;12.340;2022-12-18T08:20:32;102160.69;;;-7.21;100.00
38038;BME280;23843;51.320;12.340;2022-12-18T08:22:59;102167.97;;;-6.95;100.00
38038;BME280;23843;51.320;12.340;2022-12-18T08:25:24;102167.16;;;-6.16;100.00
38038;BME280;23843;51.320;12.340;2022-12-18T08:27:50;102164.00;;;-5.25;100.00
38038;BME280;23843;51.320;12.340;2022-12-18T08:30:15;102157.19;;;-4.31;100.00
38038;BME280;23843;51.320;12.340;2022-12-18T08:32:41;102158.69;;;-3.61;97.22
38038;BME280;23843;51.320;12.340;2022-12-18T08:35:07;102162.69;;;-3.71;97.06
38038;BME280;23843;51.320;12.340;2022-12-18T08:37:32;102160.56;;;-3.57;96.06
38038;BME280;23843;51.320;12.340;2022-12-18T08:39:59;102163.59;;;-3.43;90.94
38038;BME280;23843;51.320;12.340;2022-12-18T08:42:24;102167.69;;;-3.50;91.54
38038;BME280;23843;51.320;12.340;2022-12-18T08:44:50;102167.34;;;-3.86;93.28
38038;BME280;23843;51.320;12.340;2022-12-18T08:47:15;102168.59;;;-4.24;94.61
38038;BME280;23843;51.320;12.340;2022-12-18T08:49:41;102156.91;;;-4.39;97.88
38038;BME280;23843;51.320;12.340;2022-12-18T08:52:06;102175.44;;;-4.50;100.00
38038;BME280;23843;51.320;12.340;2022-12-18T08:54:32;102176.53;;;-4.44;100.00
38038;BME280;23843;51.320;12.340;2022-12-18T08:56:58;102174.22;;;-4.60;100.00
38038;BME280;23843;51.320;12.340;2022-12-18T08:59:24;102168.81;;;-4.66;100.00
38038;BME280;23843;51.320;12.340;2022-12-18T09:01:49;102170.19;;;-4.52;100.00
38038;BME280;23843;51.320;12.340;2022-12-18T09:04:15;102181.59;;;-4.47;100.00
38038;BME280;23843;51.320;12.340;2022-12-18T09:06:41;102187.34;;;-4.32;100.00
38038;BME280;23843;51.320;12.340;2022-12-18T09:09:06;102174.22;;;-4.12;100.00
38038;BME280;23843;51.320;12.340;2022-12-18T09:11:33;102184.19;;;-3.99;100.00
38038;BME280;23843;51.320;12.340;2022-12-18T09:14:01;102176.41;;;-3.99;100.00
38038;BME280;23843;51.320;12.340;2022-12-18T09:16:27;102180.09;;;-3.92;100.00
38038;BME280;23843;51.320;12.340;2022-12-18T09:18:53;102181.75;;;-3.94;100.00
38038;BME280;23843;51.320;12.340;2022-12-18T09:21:20;102182.09;;;-3.83;100.00
38038;BME280;23843;51.320;12.340;2022-12-18T09:23:49;102176.06;;;-3.84;100.00
38038;BME280;23843;51.320;12.340;2022-12-18T09:26:14;102172.00;;;-3.76;100.00
38038;BME280;23843;51.320;12.340;2022-12-18T09:28:40;102172.94;;;-3.74;100.00
38038;BME280;23843;51.320;12.340;2022-12-18T09:31:08;102177.25;;;-3.74;100.00
38038;BME280;23843;51.320;12.340;2022-12-18T09:33:35;102164.22;;;-3.77;100.00
38038;BME280;23843;51.320;12.340;2022-12-18T09:36:02;102164.63;;;-3.65;100.00
38038;BME280;23843;51.320;12.340;2022-12-18T09:38:28;102160.38;;;-3.63;100.00
38038;BME280;23843;51.320;12.340;2022-12-18T09:40:59;102150.03;;;-3.61;100.00
38038;BME280;23843;51.320;12.340;2022-12-18T09:43:28;102140.75;;;-3.55;100.00
38038;BME280;23843;51.320;12.340;2022-12-18T09:45:59;102151.84;;;-3.59;100.00
38038;BME280;23843;51.320;12.340;2022-12-18T09:48:30;102135.88;;;-3.46;100.00
38038;BME280;23843;51.320;12.340;2022-12-18T09:51:00;102138.31;;;-3.23;100.00
38038;BME280;23843;51.320;12.340;2022-12-18T09:53:30;102128.31;;;-3.11;100.00
38038;BME280;23843;51.320;12.340;2022-12-18T09:55:57;102122.69;;;-3.25;99.12
38038;BME280;23843;51.320;12.340;2022-12-18T09:58:28;102128.16;;;-3.17;98.38
38038;BME280;23843;51.320;12.340;2022-12-18T10:00:55;102123.19;;;-3.09;99.35
38038;BME280;23843;51.320;12.340;2022-12-18T10:03:21;102114.94;;;-2.96;97.51
38038;BME280;23843;51.320;12.340;2022-12-18T10:05:55;102108.25;;;-2.58;93.72
38038;BME280;23843;51.320;12.340;2022-12-18T10:08:29;102099.19;;;-1.74;91.30
38038;BME280;23843;51.320;12.340;2022-12-18T10:11:03;102094.00;;;-0.05;84.51
38038;BME280;23843;51.320;12.340;2022-12-18T10:13:41;102086.31;;;1.21;73.18
38038;BME280;23843;51.320;12.340;2022-12-18T10:16:11;102089.59;;;1.03;72.48
38038;BME280;23843;51.320;12.340;2022-12-18T10:18:57;102083.59;;;1.11;70.83
38038;BME280;23843;51.320;12.340;2022-12-18T10:21:31;102090.03;;;0.17;74.29
38038;BME280;23843;51.320;12.340;2022-12-18T10:24:02;102089.44;;;-0.18;77.49
38038;BME280;23843;51.320;12.340;2022-12-18T10:26:34;102083.84;;;0.65;74.11
38038;BME280;23843;51.320;12.340;2022-12-18T10:29:00;102069.88;;;1.28;66.38
38038;BME280;23843;51.320;12.340;2022-12-18T10:31:26;102072.59;;;2.31;64.30
38038;BME280;23843;51.320;12.340;2022-12-18T10:33:54;102079.41;;;2.12;65.68
38038;BME280;23843;51.320;12.340;2022-12-18T10:36:20;102074.72;;;2.92;58.36
38038;BME280;23843;51.320;12.340;2022-12-18T10:38:46;102083.41;;;2.85;61.59
38038;BME280;23843;51.320;12.340;2022-12-18T10:41:24;102074.88;;;1.89;56.16
38038;BME280;23843;51.320;12.340;2022-12-18T10:44:11;102074.88;;;1.09;64.76
38038;BME280;23843;51.320;12.340;2022-12-18T10:46:36;102077.81;;;2.31;60.49
38038;BME280;23843;51.320;12.340;2022-12-18T10:49:02;102070.88;;;2.30;58.27
38038;BME280;23843;51.320;12.340;2022-12-18T10:51:29;102067.16;;;1.19;60.14
38038;BME280;23843;51.320;12.340;2022-12-18T10:53:59;102058.34;;;1.08;65.09
38038;BME280;23843;51.320;12.340;2022-12-18T10:56:27;102065.97;;;0.32;66.11
38038;BME280;23843;51.320;12.340;2022-12-18T10:58:59;102062.47;;;0.31;66.36
38038;BME280;23843;51.320;12.340;2022-12-18T11:01:25;102062.88;;;1.24;62.58
38038;BME280;23843;51.320;12.340;2022-12-18T11:04:00;102060.63;;;0.24;69.07
38038;BME280;23843;51.320;12.340;2022-12-18T11:06:26;102062.47;;;-0.69;70.75
38038;BME280;23843;51.320;12.340;2022-12-18T11:08:59;102074.31;;;-1.26;76.62
38038;BME280;23843;51.320;12.340;2022-12-18T11:11:25;102075.72;;;-1.40;79.15
38038;BME280;23843;51.320;12.340;2022-12-18T11:13:58;102076.25;;;-1.55;82.70
38038;BME280;23843;51.320;12.340;2022-12-18T11:16:26;102067.00;;;-1.79;85.37
38038;BME280;23843;51.320;12.340;2022-12-18T11:18:52;102066.09;;;-1.81;84.87
38038;BME280;23843;51.320;12.340;2022-12-18T11:21:18;102071.69;;;-2.00;86.57
38038;BME280;23843;51.320;12.340;2022-12-18T11:23:48;102078.91;;;-2.23;88.41
38038;BME280;23843;51.320;12.340;2022-12-18T11:26:16;102080.50;;;-2.27;89.25
38038;BME280;23843;51.320;12.340;2022-12-18T11:28:44;102081.44;;;-2.25;90.04
38038;BME280;23843;51.320;12.340;2022-12-18T11:31:25;102084.97;;;-2.23;89.79
38038;BME280;23843;51.320;12.340;2022-12-18T11:34:04;102081.69;;;-2.16;91.04
38038;BME280;23843;51.320;12.340;2022-12-18T11:36:36;102087.69;;;-2.18;90.55
38038;BME280;23843;51.320;12.340;2022-12-18T11:39:12;102088.22;;;-2.30;90.45
38038;BME280;23843;51.320;12.340;2022-12-18T11:41:48;102099.09;;;-2.45;91.56
38038;BME280;23843;51.320;12.340;2022-12-18T11:44:18;102098.09;;;-2.50;92.84
38038;BME280;23843;51.320;12.340;2022-12-18T11:46:51;102092.94;;;-2.48;94.23
38038;BME280;23843;51.320;12.340;2022-12-18T11:49:22;102088.44;;;-2.54;94.61
38038;BME280;23843;51.320;12.340;2022-12-18T11:51:54;102091.34;;;-2.43;95.49
38038;BME280;23843;51.320;12.340;2022-12-18T11:54:20;102089.75;;;-2.38;95.93
38038;BME280;23843;51.320;12.340;2022-12-18T11:56:49;102089.41;;;-2.50;93.66
38038;BME280;23843;51.320;12.340;2022-12-18T11:59:24;102080.72;;;-2.52;95.54
38038;BME280;23843;51.320;12.340;2022-12-18T12:01:57;102072.75;;;-2.59;95.38
38038;BME280;23843;51.320;12.340;2022-12-18T12:04:45;102064.75;;;-2.68;95.87
38038;BME280;23843;51.320;12.340;2022-12-18T12:07:23;102063.16;;;-2.63;97.06
38038;BME280;23843;51.320;12.340;2022-12-18T12:09:56;102070.16;;;-2.59;96.58
38038;BME280;23843;51.320;12.340;2022-12-18T12:12:34;102066.81;;;-2.54;97.04
38038;BME280;23843;51.320;12.340;2022-12-18T12:15:10;102066.00;;;-2.53;95.02
38038;BME280;23843;51.320;12.340;2022-12-18T12:17:44;102070.13;;;-2.60;94.15
38038;BME280;23843;51.320;12.340;2022-12-18T12:20:18;102061.69;;;-2.83;93.98
38038;BME280;23843;51.320;12.340;2022-12-18T12:22:50;102043.53;;;-2.83;94.30
38038;BME280;23843;51.320;12.340;2022-12-18T12:25:28;102040.06;;;-2.85;94.42
38038;BME280;23843;51.320;12.340;2022-12-18T12:28:07;102036.22;;;-2.98;92.58
38038;BME280;23843;51.320;12.340;2022-12-18T12:30:45;102035.97;;;-3.07;93.90
38038;BME280;23843;51.320;12.340;2022-12-18T12:33:27;102029.66;;;-3.17;94.57
38038;BME280;23843;51.320;12.340;2022-12-18T12:36:03;102037.31;;;-3.20;94.68
38038;BME280;23843;51.320;12.340;2022-12-18T12:38:36;102045.56;;;-3.33;94.70
38038;BME280;23843;51.320;12.340;2022-12-18T12:41:07;102043.91;;;-3.31;95.02
38038;BME280;23843;51.320;12.340;2022-12-18T12:43:41;102047.16;;;-3.38;94.97
38038;BME280;23843;51.320;12.340;2022-12-18T12:46:10;102040.31;;;-3.36;96.95
38038;BME280;23843;51.320;12.340;2022-12-18T12:48:42;102037.00;;;-3.31;95.86
38038;BME280;23843;51.320;12.340;2022-12-18T12:51:14;102045.50;;;-3.36;95.48
38038;BME280;23843;51.320;12.340;2022-12-18T12:53:47;102051.03;;;-3.24;96.53
38038;BME280;23843;51.320;12.340;2022-12-18T12:56:14;102049.53;;;-3.16;96.94
38038;BME280;23843;51.320;12.340;2022-12-18T12:58:47;102043.63;;;-3.12;95.83
38038;BME280;23843;51.320;12.340;2022-12-18T13:01:25;102039.09;;;-3.17;93.38
38038;BME280;23843;51.320;12.340;2022-12-18T13:04:02;102037.00;;;-3.31;93.47
38038;BME280;23843;51.320;12.340;2022-12-18T13:06:37;102034.41;;;-3.31;94.08
38038;BME280;23843;51.320;12.340;2022-12-18T13:09:05;102034.22;;;-3.37;92.75
38038;BME280;23843;51.320;12.340;2022-12-18T13:11:35;102021.81;;;-3.47;93.47
38038;BME280;23843;51.320;12.340;2022-12-18T13:14:02;102007.94;;;-3.49;94.41
38038;BME280;23843;51.320;12.340;2022-12-18T13:16:28;102005.13;;;-3.57;93.14
38038;BME280;23843;51.320;12.340;2022-12-18T13:18:54;102010.03;;;-3.66;93.76
38038;BME280;23843;51.320;12.340;2022-12-18T13:21:24;102010.03;;;-3.66;93.61
38038;BME280;23843;51.320;12.340;2022-12-18T13:23:51;101997.13;;;-3.64;94.54
38038;BME280;23843;51.320;12.340;2022-12-18T13:26:41;102004.97;;;-3.63;94.97
38038;BME280;23843;51.320;12.340;2022-12-18T13:29:07;101999.00;;;-3.59;95.90
38038;BME280;23843;51.320;12.340;2022-12-18T13:32:22;102004.97;;;-3.63;95.89
38038;BME280;23843;51.320;12.340;2022-12-18T13:34:48;102006.78;;;-3.59;97.47
38038;BME280;23843;51.320;12.340;2022-12-18T13:37:43;102009.34;;;-3.60;96.16
38038;BME280;23843;51.320;12.340;2022-12-18T13:43:29;102015.97;;;-3.69;96.03
38038;BME280;23843;51.320;12.340;2022-12-18T13:46:16;102016.59;;;-3.77;95.69
38038;BME280;23843;51.320;12.340;2022-12-18T13:48:50;102007.06;;;-3.78;96.22
38038;BME280;23843;51.320;12.340;2022-12-18T13:51:17;102001.94;;;-3.77;96.79
38038;BME280;23843;51.320;12.340;2022-12-18T13:53:48;101986.34;;;-3.78;97.77
38038;BME280;23843;51.320;12.340;2022-12-18T13:56:21;101991.50;;;-3.78;96.88
38038;BME280;23843;51.320;12.340;2022-12-18T13:59:15;101981.91;;;-3.82;96.58
38038;BME280;23843;51.320;12.340;2022-12-18T14:01:44;101981.84;;;-3.84;95.90
38038;BME280;23843;51.320;12.340;2022-12-18T14:04:12;101977.59;;;-3.82;96.63
38038;BME280;23843;51.320;12.340;2022-12-18T14:06:38;101982.69;;;-3.85;97.36
38038;BME280;23843;51.320;12.340;2022-12-18T14:09:03;101986.19;;;-3.83;96.98
38038;BME280;23843;51.320;12.340;2022-12-18T14:11:29;101990.56;;;-3.82;98.15
38038;BME280;23843;51.320;12.340;2022-12-18T14:13:56;101989.72;;;-3.81;97.91
38038;BME280;23843;51.320;12.340;2022-12-18T14:16:21;101976.75;;;-3.82;98.36
38038;BME280;23843;51.320;12.340;2022-12-18T14:18:52;101982.00;;;-3.79;99.21
38038;BME280;23843;51.320;12.340;2022-12-18T14:21:22;101989.78;;;-3.79;98.38
38038;BME280;23843;51.320;12.340;2022-12-18T14:24:03;101987.97;;;-3.82;98.76
38038;BME280;23843;51.320;12.340;2022-12-18T14:26:31;101989.63;;;-3.84;98.77
38038;BME280;23843;51.320;12.340;2022-12-18T14:29:00;101976.63;;;-3.85;97.90
38038;BME280;23843;51.320;12.340;2022-12-18T14:31:27;101972.94;;;-3.94;97.99
38038;BME280;23843;51.320;12.340;2022-12-18T14:33:54;101986.88;;;-3.89;99.38
38038;BME280;23843;51.320;12.340;2022-12-18T14:36:21;101986.81;;;-3.92;99.97
38038;BME280;23843;51.320;12.340;2022-12-18T14:38:50;101984.28;;;-3.90;99.80
38038;BME280;23843;51.320;12.340;2022-12-18T14:41:18;101979.03;;;-3.92;99.75
38038;BME280;23843;51.320;12.340;2022-12-18T14:43:45;101969.47;;;-3.94;99.98
38038;BME280;23843;51.320;12.340;2022-12-18T14:46:27;101971.19;;;-3.95;100.00
38038;BME280;23843;51.320;12.340;2022-12-18T14:48:55;101974.50;;;-3.99;100.00
38038;BME280;23843;51.320;12.340;2022-12-18T14:51:22;101966.50;;;-4.06;100.00
38038;BME280;23843;51.320;12.340;2022-12-18T14:53:53;101970.00;;;-4.04;100.00
38038;BME280;23843;51.320;12.340;2022-12-18T14:56:21;101968.16;;;-4.09;100.00
38038;BME280;23843;51.320;12.340;2022-12-18T14:58:48;101971.31;;;-4.17;100.00
38038;BME280;23843;51.320;12.340;2022-12-18T15:01:25;101960.22;;;-4.13;100.00
38038;BME280;23843;51.320;12.340;2022-12-18T15:03:52;101951.44;;;-4.18;100.00
38038;BME280;23843;51.320;12.340;2022-12-18T15:06:26;101957.31;;;-4.24;100.00
38038;BME280;23843;51.320;12.340;2022-12-18T15:08:52;101959.66;;;-4.32;100.00
38038;BME280;23843;51.320;12.340;2022-12-18T15:11:27;101961.31;;;-4.34;100.00
38038;BME280;23843;51.320;12.340;2022-12-18T15:13:52;101958.91;;;-4.27;100.00
38038;BME280;23843;51.320;12.340;2022-12-18T15:16:18;101965.66;;;-4.33;100.00
38038;BME280;23843;51.320;12.340;2022-12-18T15:18:48;101976.84;;;-4.34;100.00
38038;BME280;23843;51.320;12.340;2022-12-18T15:21:17;101975.81;;;-4.39;100.00
38038;BME280;23843;51.320;12.340;2022-12-18T15:23:47;101977.47;;;-4.41;100.00
38038;BME280;23843;51.320;12.340;2022-12-18T15:26:18;101976.69;;;-4.38;100.00
38038;BME280;23843;51.320;12.340;2022-12-18T15:28:47;101974.97;;;-4.38;100.00
38038;BME280;23843;51.320;12.340;2022-12-18T15:31:24;101976.78;;;-4.35;100.00
38038;BME280;23843;51.320;12.340;2022-12-18T15:34:08;101971.75;;;-4.31;100.00
38038;BME280;23843;51.320;12.340;2022-12-18T15:36:35;101974.28;;;-4.32;100.00
38038;BME280;23843;51.320;12.340;2022-12-18T15:39:03;101974.00;;;-4.41;100.00
38038;BME280;23843;51.320;12.340;2022-12-18T15:41:31;101971.44;;;-4.40;100.00
38038;BME280;23843;51.320;12.340;2022-12-18T15:43:57;101961.88;;;-4.42;100.00
38038;BME280;23843;51.320;12.340;2022-12-18T15:46:26;101962.75;;;-4.42;100.00
38038;BME280;23843;51.320;12.340;2022-12-18T15:48:53;101961.16;;;-4.38;100.00
38038;BME280;23843;51.320;12.340;2022-12-18T15:51:23;101959.34;;;-4.41;100.00
38038;BME280;23843;51.320;12.340;2022-12-18T15:53:54;101957.50;;;-4.45;100.00
38038;BME280;23843;51.320;12.340;2022-12-18T15:56:22;101950.34;;;-4.52;100.00
38038;BME280;23843;51.320;12.340;2022-12-18T15:58:47;101947.69;;;-4.54;100.00
38038;BME280;23843;51.320;12.340;2022-12-18T16:01:13;101955.34;;;-4.58;100.00
38038;BME280;23843;51.320;12.340;2022-12-18T16:03:39;101956.53;;;-4.48;100.00
38038;BME280;23843;51.320;12.340;2022-12-18T16:06:05;101946.22;;;-4.47;100.00
38038;BME280;23843;51.320;12.340;2022-12-18T16:08:30;101930.69;;;-4.47;100.00
38038;BME280;23843;51.320;12.340;2022-12-18T16:10:56;101921.13;;;-4.49;100.00
38038;BME280;23843;51.320;12.340;2022-12-18T16:13:25;101923.69;;;-4.51;100.00
38038;BME280;23843;51.320;12.340;2022-12-18T16:15:50;101920.25;;;-4.50;100.00
38038;BME280;23843;51.320;12.340;2022-12-18T16:18:19;101928.00;;;-4.50;100.00
38038;BME280;23843;51.320;12.340;2022-12-18T16:20:44;101934.94;;;-4.49;100.00
38038;BME280;23843;51.320;12.340;2022-12-18T16:23:10;101928.88;;;-4.49;100.00
38038;BME280;23843;51.320;12.340;2022-12-18T16:25:35;101929.75;;;-4.49;100.00
38038;BME280;23843;51.320;12.340;2022-12-18T16:28:01;101937.50;;;-4.49;100.00
38038;BME280;23843;51.320;12.340;2022-12-18T16:30:32;101941.88;;;-4.48;100.00
38038;BME280;23843;51.320;12.340;2022-12-18T16:32:58;101935.53;;;-4.58;100.00
38038;BME280;23843;51.320;12.340;2022-12-18T16:35:24;101938.03;;;-4.59;100.00
38038;BME280;23843;51.320;12.340;2022-12-18T16:37:53;101935.16;;;-4.68;100.00
38038;BME280;23843;51.320;12.340;2022-12-18T16:40:18;101936.81;;;-4.70;100.00
38038;BME280;23843;51.320;12.340;2022-12-18T16:42:53;101930.72;;;-4.72;100.00
38038;BME280;23843;51.320;12.340;2022-12-18T16:45:18;101925.66;;;-4.69;100.00
38038;BME280;23843;51.320;12.340;2022-12-18T16:47:45;101923.16;;;-4.66;100.00
38038;BME280;23843;51.320;12.340;2022-12-18T16:50:10;101912.16;;;-4.61;100.00
38038;BME280;23843;51.320;12.340;2022-12-18T16:52:36;101916.47;;;-4.60;100.00
38038;BME280;23843;51.320;12.340;2022-12-18T16:55:04;101923.38;;;-4.60;100.00
38038;BME280;23843;51.320;12.340;2022-12-18T16:57:30;101908.50;;;-4.66;100.00
38038;BME280;23843;51.320;12.340;2022-12-18T16:59:58;101893.63;;;-4.73;100.00
38038;BME280;23843;51.320;12.340;2022-12-18T17:02:25;101893.50;;;-4.78;100.00
38038;BME280;23843;51.320;12.340;2022-12-18T17:04:54;101891.56;;;-4.83;100.00
38038;BME280;23843;51.320;12.340;2022-12-18T17:07:23;101895.00;;;-4.84;100.00
38038;BME280;23843;51.320;12.340;2022-12-18T17:09:48;101894.22;;;-4.82;100.00
38038;BME280;23843;51.320;12.340;2022-12-18T17:12:16;101885.69;;;-4.79;100.00
38038;BME280;23843;51.320;12.340;2022-12-18T17:14:41;101880.56;;;-4.78;100.00
38038;BME280;23843;51.320;12.340;2022-12-18T17:17:07;101874.47;;;-4.80;100.00
38038;BME280;23843;51.320;12.340;2022-12-18T17:19:32;101874.41;;;-4.81;100.00
38038;BME280;23843;51.320;12.340;2022-12-18T17:21:59;101870.88;;;-4.83;100.00
38038;BME280;23843;51.320;12.340;2022-12-18T17:24:28;101870.72;;;-4.88;100.00
38038;BME280;23843;51.320;12.340;2022-12-18T17:26:53;101876.75;;;-4.89;100.00
38038;BME280;23843;51.320;12.340;2022-12-18T17:29:19;101873.47;;;-4.83;100.00
38038;BME280;23843;51.320;12.340;2022-12-18T17:31:45;101875.28;;;-4.81;100.00
38038;BME280;23843;51.320;12.340;2022-12-18T17:34:11;101862.34;;;-4.81;100.00
38038;BME280;23843;51.320;12.340;2022-12-18T17:36:40;101861.31;;;-4.86;100.00
38038;BME280;23843;51.320;12.340;2022-12-18T17:39:10;101851.91;;;-4.84;100.00
38038;BME280;23843;51.320;12.340;2022-12-18T17:41:40;101850.97;;;-4.86;100.00
38038;BME280;23843;51.320;12.340;2022-12-18T17:44:05;101853.72;;;-4.81;100.00
38038;BME280;23843;51.320;12.340;2022-12-18T17:46:34;101856.28;;;-4.83;100.00
38038;BME280;23843;51.320;12.340;2022-12-18T17:49:01;101846.75;;;-4.84;100.00
38038;BME280;23843;51.320;12.340;2022-12-18T17:51:27;101855.28;;;-4.86;100.00
38038;BME280;23843;51.320;12.340;2022-12-18T17:53:53;101853.63;;;-4.84;100.00
38038;BME280;23843;51.320;12.340;2022-12-18T17:56:22;101859.81;;;-4.79;100.00
38038;BME280;23843;51.320;12.340;2022-12-18T17:58:49;101860.69;;;-4.79;100.00
38038;BME280;23843;51.320;12.340;2022-12-18T18:01:17;101853.16;;;-4.72;100.00
38038;BME280;23843;51.320;12.340;2022-12-18T18:03:43;101849.00;;;-4.67;100.00
38038;BME280;23843;51.320;12.340;2022-12-18T18:06:09;101851.69;;;-4.64;100.00
38038;BME280;23843;51.320;12.340;2022-12-18T18:08:34;101850.84;;;-4.63;100.00
38038;BME280;23843;51.320;12.340;2022-12-18T18:11:04;101852.53;;;-4.65;100.00
38038;BME280;23843;51.320;12.340;2022-12-18T18:13:31;101854.28;;;-4.64;100.00
38038;BME280;23843;51.320;12.340;2022-12-18T18:15:57;101853.50;;;-4.62;100.00
38038;BME280;23843;51.320;12.340;2022-12-18T18:18:23;101843.28;;;-4.57;100.00